Isola Bianca — ICLD — position and weather

sailwx.info

Track history (hours):
 
Tides and Currents Weather Stations Pressure Air Temp Water Temp Dewpoint Dewpoint Depression Visibility Wind Speed Wind Dir Waves Ship Positions

Isola Bianca

Last reported at 2017-Mar-25 20:29 UTC. Time now 2017-Mar-26 17:13 UTC.
Position N 35°58' W 005°35'.

Length 183 m; draft 11.2 m.

Type: Ship. MMSI: 247245200.

Date/timePositionNaut miles runAvg speedWind from/ knotsBaromVisibWave heightAir tempDewpointWater temp
2017-Mar-25 20:29N 35°58' W 005°35'1111.8
2017-Mar-25 19:33N 36°04' W 005°24'6 5.6
2017-Mar-25 18:32N 36°10' W 005°23'0 0.1
2017-Mar-25 17:32N 36°10' W 005°23'0 0.0
2017-Mar-25 06:32N 36°10' W 005°23'0 0.0
2017-Mar-25 04:23N 36°10' W 005°23'0 0.0
2017-Mar-25 03:29N 36°10' W 005°23'0 0.0
2017-Mar-24 21:32N 36°10' W 005°23'0 0.0
2017-Mar-24 20:32N 36°10' W 005°23'1 0.4
2017-Mar-24 16:33N 36°09' W 005°24'6 6.1
2017-Mar-24 15:33N 36°04' W 005°19'5 4.5
2017-Mar-24 14:31N 36°06' W 005°14'21611.9
2017-Mar-23 20:26N 37°16' W 000°59'1011.8
2017-Mar-23 19:33N 37°23' W 000°49'1211.6
2017-Mar-23 18:30N 37°31' W 000°38'1111.1
2017-Mar-23 17:33N 37°39' W 000°30'15112.6
2017-Mar-23 05:31N 39°42' E 001°24'1212.6
2017-Mar-23 04:33N 39°51' E 001°34'1312.9
2017-Mar-23 03:33N 40°02' E 001°44'1312.6
2017-Mar-23 02:33N 40°11' E 001°55'1212.3
2017-Mar-23 01:33N 40°21' E 002°05'1212.4
2017-Mar-23 00:33N 40°31' E 002°15'1312.5
2017-Mar-22 23:33N 40°41' E 002°25'1212.4
2017-Mar-22 22:33N 40°50' E 002°35'1212.2
2017-Mar-22 21:33N 40°60' E 002°45'14913.1
2017-Mar-22 10:10N 42°58' E 004°47'2211.0
2017-Mar-22 08:12N 43°18' E 004°59'6 8.4
2017-Mar-22 07:33N 43°24' E 004°59'1 0.6
2017-Mar-22 06:31N 43°24' E 004°60'0 0.0
2017-Mar-22 05:31N 43°24' E 004°60'0 0.0
2017-Mar-22 04:31N 43°24' E 004°60'0 0.0
2017-Mar-22 03:31N 43°24' E 004°60'0 0.0
2017-Mar-22 02:31N 43°24' E 004°60'0 0.0
2017-Mar-22 01:31N 43°24' E 004°60'0 0.0
2017-Mar-22 00:31N 43°24' E 004°60'0 0.0
2017-Mar-21 23:31N 43°24' E 004°60'0 0.0
2017-Mar-21 22:31N 43°24' E 004°60'0 0.0
2017-Mar-21 21:22N 43°24' E 004°60'0 0.0
2017-Mar-21 20:31N 43°24' E 004°60'0 0.0
2017-Mar-21 19:28N 43°24' E 004°60'0 0.0
2017-Mar-21 18:31N 43°24' E 004°60'0 0.0
2017-Mar-21 17:31N 43°24' E 004°60'0 0.0
2017-Mar-21 16:31N 43°24' E 004°60'0 0.0
2017-Mar-21 15:31N 43°24' E 004°60'0 0.0
2017-Mar-21 14:31N 43°24' E 004°60'0 0.0
2017-Mar-21 13:32N 43°24' E 004°60'0 0.0
2017-Mar-21 12:32N 43°24' E 004°60'0 0.0
2017-Mar-21 11:26N 43°24' E 004°60'0 0.0
2017-Mar-21 10:18N 43°24' E 004°60'0 0.0
2017-Mar-21 09:32N 43°24' E 004°60'0 0.0
2017-Mar-21 08:29N 43°24' E 004°60'0 0.0
2017-Mar-21 07:32N 43°24' E 004°60'0 0.0
2017-Mar-21 06:32N 43°24' E 004°60'0 0.0
2017-Mar-21 05:32N 43°24' E 004°60'0 0.0
2017-Mar-21 04:32N 43°24' E 004°60'0 0.0
2017-Mar-21 03:32N 43°24' E 004°60'0 0.0
2017-Mar-21 02:29N 43°24' E 004°60'0 0.0
2017-Mar-21 01:29N 43°24' E 004°60'0 0.0
2017-Mar-21 00:23N 43°24' E 004°60'0 0.0
2017-Mar-20 23:29N 43°24' E 004°60'0 0.0
2017-Mar-20 22:32N 43°24' E 004°60'0 0.0
2017-Mar-20 21:32N 43°24' E 004°60'0 0.0
2017-Mar-20 20:29N 43°24' E 004°60'0 0.0
2017-Mar-20 19:32N 43°24' E 004°60'0 0.0
2017-Mar-20 18:32N 43°24' E 004°60'0 0.0
2017-Mar-20 17:32N 43°24' E 004°60'0 0.0
2017-Mar-20 16:32N 43°24' E 004°60'0 0.0
2017-Mar-20 15:29N 43°24' E 004°60'0 0.0
2017-Mar-20 14:32N 43°24' E 004°60'0 0.0
2017-Mar-20 13:32N 43°24' E 004°60'0 0.0
2017-Mar-20 12:32N 43°24' E 004°60'0 0.0
2017-Mar-20 11:32N 43°24' E 004°60'0 0.0
2017-Mar-20 10:29N 43°24' E 004°60'0 0.0
2017-Mar-20 09:32N 43°24' E 004°60'0 0.0
2017-Mar-20 08:29N 43°24' E 004°60'0 0.0
2017-Mar-20 07:32N 43°24' E 004°60'0 0.0
2017-Mar-20 06:32N 43°24' E 004°60'0 0.0
2017-Mar-20 05:32N 43°24' E 004°60'0 0.0
2017-Mar-20 04:29N 43°24' E 004°60'0 0.0
2017-Mar-20 03:29N 43°24' E 004°60'0 0.0
2017-Mar-20 02:32N 43°24' E 004°60'0 0.0
2017-Mar-20 01:32N 43°24' E 004°60'0 0.0
2017-Mar-20 00:32N 43°24' E 004°60'0 0.0
2017-Mar-19 23:32N 43°24' E 004°60'0 0.0
2017-Mar-19 22:29N 43°24' E 004°60'0 0.0
2017-Mar-19 21:32N 43°24' E 004°60'0 0.0
2017-Mar-19 20:32N 43°24' E 004°60'0 0.0
2017-Mar-19 19:32N 43°24' E 004°60'0 0.0
2017-Mar-19 18:23N 43°24' E 004°60'0 0.0
2017-Mar-19 17:32N 43°24' E 004°60'0 0.0
2017-Mar-19 16:32N 43°24' E 004°60'0 0.0
2017-Mar-19 15:32N 43°24' E 004°60'0 0.0
2017-Mar-19 14:29N 43°24' E 004°60'0 0.0
2017-Mar-19 13:32N 43°24' E 004°60'0 0.0
2017-Mar-19 12:32N 43°24' E 004°60'0 0.0
2017-Mar-19 11:29N 43°24' E 004°60'0 0.0
2017-Mar-19 10:33N 43°24' E 004°60'2 2.3
2017-Mar-19 09:33N 43°24' E 004°57'0 0.4
2017-Mar-19 08:30N 43°24' E 004°56'0 0.0
2017-Mar-19 07:21N 43°24' E 004°56'0 0.0
2017-Mar-19 06:33N 43°24' E 004°56'0 0.0
2017-Mar-19 05:33N 43°24' E 004°56'0 0.0
2017-Mar-19 04:27N 43°24' E 004°56'0 0.0
2017-Mar-19 03:27N 43°24' E 004°56'0 0.1
2017-Mar-19 02:33N 43°24' E 004°56'8 6.6
2017-Mar-19 01:20N 43°17' E 005°01'9013.0
2017-Mar-18 18:25N 42°11' E 003°37'2814.9
2017-Mar-18 16:30N 41°48' E 003°15'1515.0
2017-Mar-18 15:29N 41°35' E 003°04'1414.7
2017-Mar-18 14:33N 41°22' E 002°59'1514.6
2017-Mar-18 13:33N 41°08' E 002°53'1514.6
2017-Mar-18 12:34N 40°56' E 002°42'1515.1
2017-Mar-18 11:33N 40°44' E 002°30'1515.2
2017-Mar-18 10:33N 40°32' E 002°18'1514.7
2017-Mar-18 09:33N 40°20' E 002°06'1515.1
2017-Mar-18 08:33N 40°08' E 001°54'1515.3
2017-Mar-18 07:34N 39°57' E 001°41'1515.1
2017-Mar-18 06:34N 39°45' E 001°29'1514.9
2017-Mar-18 05:33N 39°33' E 001°18'1414.5
2017-Mar-18 04:34N 39°21' E 001°06'1514.6
2017-Mar-18 03:33N 39°09' E 000°55'6415.2
2017-Mar-17 23:19N 38°18' E 000°06'1714.6
2017-Mar-17 22:09N 38°10' W 000°13'3112.0
2017-Mar-17 19:34N 37°40' W 000°25'1614.0
2017-Mar-17 18:24N 37°28' W 000°39'1313.8
2017-Mar-17 17:29N 37°20' W 000°52'21810.4
2017-Mar-16 20:33N 36°00' W 005°05'9 9.5
2017-Mar-16 19:33N 35°59' W 005°17'1010.0
2017-Mar-16 18:33N 35°58' W 005°29'1211.7
2017-Mar-16 17:33N 35°54' W 005°43'  
Track history (hours):
 
Tides and Currents Weather Stations Pressure Air Temp Water Temp Dewpoint Dewpoint Depression Visibility Wind Speed Wind Dir Waves Ship Positions

Isola Bianca

Last reported at 2017-Mar-25 20:29 UTC. Time now 2017-Mar-26 17:13 UTC.
Position N 35°58' W 005°35'.

Length 183 m; draft 11.2 m.

Type: Ship. MMSI: 247245200.

Date/timePositionNaut miles runAvg speedWind from/ knotsBaromVisibWave heightAir tempDewpointWater temp
2017-Mar-25 20:29N 35°58' W 005°35'1111.8
2017-Mar-25 19:33N 36°04' W 005°24'6 5.6
2017-Mar-25 18:32N 36°10' W 005°23'0 0.1
2017-Mar-25 17:32N 36°10' W 005°23'0 0.0
2017-Mar-25 06:32N 36°10' W 005°23'0 0.0
2017-Mar-25 04:23N 36°10' W 005°23'0 0.0
2017-Mar-25 03:29N 36°10' W 005°23'0 0.0
2017-Mar-24 21:32N 36°10' W 005°23'0 0.0
2017-Mar-24 20:32N 36°10' W 005°23'1 0.4
2017-Mar-24 16:33N 36°09' W 005°24'6 6.1
2017-Mar-24 15:33N 36°04' W 005°19'5 4.5
2017-Mar-24 14:31N 36°06' W 005°14'21611.9
2017-Mar-23 20:26N 37°16' W 000°59'1011.8
2017-Mar-23 19:33N 37°23' W 000°49'1211.6
2017-Mar-23 18:30N 37°31' W 000°38'1111.1
2017-Mar-23 17:33N 37°39' W 000°30'15112.6
2017-Mar-23 05:31N 39°42' E 001°24'1212.6
2017-Mar-23 04:33N 39°51' E 001°34'1312.9
2017-Mar-23 03:33N 40°02' E 001°44'1312.6
2017-Mar-23 02:33N 40°11' E 001°55'1212.3
2017-Mar-23 01:33N 40°21' E 002°05'1212.4
2017-Mar-23 00:33N 40°31' E 002°15'1312.5
2017-Mar-22 23:33N 40°41' E 002°25'1212.4
2017-Mar-22 22:33N 40°50' E 002°35'1212.2
2017-Mar-22 21:33N 40°60' E 002°45'14913.1
2017-Mar-22 10:10N 42°58' E 004°47'2211.0
2017-Mar-22 08:12N 43°18' E 004°59'6 8.4
2017-Mar-22 07:33N 43°24' E 004°59'1 0.6
2017-Mar-22 06:31N 43°24' E 004°60'0 0.0
2017-Mar-22 05:31N 43°24' E 004°60'0 0.0
2017-Mar-22 04:31N 43°24' E 004°60'0 0.0
2017-Mar-22 03:31N 43°24' E 004°60'0 0.0
2017-Mar-22 02:31N 43°24' E 004°60'0 0.0
2017-Mar-22 01:31N 43°24' E 004°60'0 0.0
2017-Mar-22 00:31N 43°24' E 004°60'0 0.0
2017-Mar-21 23:31N 43°24' E 004°60'0 0.0
2017-Mar-21 22:31N 43°24' E 004°60'0 0.0
2017-Mar-21 21:22N 43°24' E 004°60'0 0.0
2017-Mar-21 20:31N 43°24' E 004°60'0 0.0
2017-Mar-21 19:28N 43°24' E 004°60'0 0.0
2017-Mar-21 18:31N 43°24' E 004°60'0 0.0
2017-Mar-21 17:31N 43°24' E 004°60'0 0.0
2017-Mar-21 16:31N 43°24' E 004°60'0 0.0
2017-Mar-21 15:31N 43°24' E 004°60'0 0.0
2017-Mar-21 14:31N 43°24' E 004°60'0 0.0
2017-Mar-21 13:32N 43°24' E 004°60'0 0.0
2017-Mar-21 12:32N 43°24' E 004°60'0 0.0
2017-Mar-21 11:26N 43°24' E 004°60'0 0.0
2017-Mar-21 10:18N 43°24' E 004°60'0 0.0
2017-Mar-21 09:32N 43°24' E 004°60'0 0.0
2017-Mar-21 08:29N 43°24' E 004°60'0 0.0
2017-Mar-21 07:32N 43°24' E 004°60'0 0.0
2017-Mar-21 06:32N 43°24' E 004°60'0 0.0
2017-Mar-21 05:32N 43°24' E 004°60'0 0.0
2017-Mar-21 04:32N 43°24' E 004°60'0 0.0
2017-Mar-21 03:32N 43°24' E 004°60'0 0.0
2017-Mar-21 02:29N 43°24' E 004°60'0 0.0
2017-Mar-21 01:29N 43°24' E 004°60'0 0.0
2017-Mar-21 00:23N 43°24' E 004°60'0 0.0
2017-Mar-20 23:29N 43°24' E 004°60'0 0.0
2017-Mar-20 22:32N 43°24' E 004°60'0 0.0
2017-Mar-20 21:32N 43°24' E 004°60'0 0.0
2017-Mar-20 20:29N 43°24' E 004°60'0 0.0
2017-Mar-20 19:32N 43°24' E 004°60'0 0.0
2017-Mar-20 18:32N 43°24' E 004°60'0 0.0
2017-Mar-20 17:32N 43°24' E 004°60'0 0.0
2017-Mar-20 16:32N 43°24' E 004°60'0 0.0
2017-Mar-20 15:29N 43°24' E 004°60'0 0.0
2017-Mar-20 14:32N 43°24' E 004°60'0 0.0
2017-Mar-20 13:32N 43°24' E 004°60'0 0.0
2017-Mar-20 12:32N 43°24' E 004°60'0 0.0
2017-Mar-20 11:32N 43°24' E 004°60'0 0.0
2017-Mar-20 10:29N 43°24' E 004°60'0 0.0
2017-Mar-20 09:32N 43°24' E 004°60'0 0.0
2017-Mar-20 08:29N 43°24' E 004°60'0 0.0
2017-Mar-20 07:32N 43°24' E 004°60'0 0.0
2017-Mar-20 06:32N 43°24' E 004°60'0 0.0
2017-Mar-20 05:32N 43°24' E 004°60'0 0.0
2017-Mar-20 04:29N 43°24' E 004°60'0 0.0
2017-Mar-20 03:29N 43°24' E 004°60'0 0.0
2017-Mar-20 02:32N 43°24' E 004°60'0 0.0
2017-Mar-20 01:32N 43°24' E 004°60'0 0.0
2017-Mar-20 00:32N 43°24' E 004°60'0 0.0
2017-Mar-19 23:32N 43°24' E 004°60'0 0.0
2017-Mar-19 22:29N 43°24' E 004°60'0 0.0
2017-Mar-19 21:32N 43°24' E 004°60'0 0.0
2017-Mar-19 20:32N 43°24' E 004°60'0 0.0
2017-Mar-19 19:32N 43°24' E 004°60'0 0.0
2017-Mar-19 18:23N 43°24' E 004°60'0 0.0
2017-Mar-19 17:32N 43°24' E 004°60'0 0.0
2017-Mar-19 16:32N 43°24' E 004°60'0 0.0
2017-Mar-19 15:32N 43°24' E 004°60'0 0.0
2017-Mar-19 14:29N 43°24' E 004°60'0 0.0
2017-Mar-19 13:32N 43°24' E 004°60'0 0.0
2017-Mar-19 12:32N 43°24' E 004°60'0 0.0
2017-Mar-19 11:29N 43°24' E 004°60'0 0.0
2017-Mar-19 10:33N 43°24' E 004°60'2 2.3
2017-Mar-19 09:33N 43°24' E 004°57'0 0.4
2017-Mar-19 08:30N 43°24' E 004°56'0 0.0
2017-Mar-19 07:21N 43°24' E 004°56'0 0.0
2017-Mar-19 06:33N 43°24' E 004°56'0 0.0
2017-Mar-19 05:33N 43°24' E 004°56'0 0.0
2017-Mar-19 04:27N 43°24' E 004°56'0 0.0
2017-Mar-19 03:27N 43°24' E 004°56'0 0.1
2017-Mar-19 02:33N 43°24' E 004°56'8 6.6
2017-Mar-19 01:20N 43°17' E 005°01'9013.0
2017-Mar-18 18:25N 42°11' E 003°37'2814.9
2017-Mar-18 16:30N 41°48' E 003°15'1515.0
2017-Mar-18 15:29N 41°35' E 003°04'1414.7
2017-Mar-18 14:33N 41°22' E 002°59'1514.6
2017-Mar-18 13:33N 41°08' E 002°53'1514.6
2017-Mar-18 12:34N 40°56' E 002°42'1515.1
2017-Mar-18 11:33N 40°44' E 002°30'1515.2
2017-Mar-18 10:33N 40°32' E 002°18'1514.7
2017-Mar-18 09:33N 40°20' E 002°06'1515.1
2017-Mar-18 08:33N 40°08' E 001°54'1515.3
2017-Mar-18 07:34N 39°57' E 001°41'1515.1
2017-Mar-18 06:34N 39°45' E 001°29'1514.9
2017-Mar-18 05:33N 39°33' E 001°18'1414.5
2017-Mar-18 04:34N 39°21' E 001°06'1514.6
2017-Mar-18 03:33N 39°09' E 000°55'6415.2
2017-Mar-17 23:19N 38°18' E 000°06'1714.6
2017-Mar-17 22:09N 38°10' W 000°13'3112.0
2017-Mar-17 19:34N 37°40' W 000°25'1614.0
2017-Mar-17 18:24N 37°28' W 000°39'1313.8
2017-Mar-17 17:29N 37°20' W 000°52'21810.4
2017-Mar-16 20:33N 36°00' W 005°05'9 9.5
2017-Mar-16 19:33N 35°59' W 005°17'1010.0
2017-Mar-16 18:33N 35°58' W 005°29'1211.7
2017-Mar-16 17:33N 35°54' W 005°43'  

Dump ship's entire track history